createdAt,value
2022-10-08T00:01:22.720Z,99302.06
2022-10-08T00:03:53.310Z,99305.06
2022-10-08T00:06:23.044Z,99304.22
2022-10-08T00:08:52.672Z,99304.47
2022-10-08T00:11:22.820Z,99311.69
2022-10-08T00:13:51.670Z,99307.81
2022-10-08T00:16:22.692Z,99309.13
2022-10-08T00:18:52.265Z,99314.50
2022-10-08T00:21:21.519Z,99318.69
2022-10-08T00:23:50.539Z,99316.34
2022-10-08T00:26:20.892Z,99314.63
2022-10-08T00:28:48.654Z,99312.94
2022-10-08T00:31:19.853Z,99303.50
2022-10-08T00:33:51.682Z,99299.50
2022-10-08T00:36:19.460Z,99312.94
2022-10-08T00:38:47.088Z,99305.28
2022-10-08T00:41:20.743Z,99308.94
2022-10-08T00:43:49.603Z,99309.88
2022-10-08T00:46:26.415Z,99309.03
2022-10-08T00:49:06.201Z,99310.59
2022-10-08T00:51:34.951Z,99308.72
2022-10-08T00:54:03.036Z,99308.78
2022-10-08T00:56:33.637Z,99303.59
2022-10-08T00:59:02.140Z,99313.22
2022-10-08T01:01:30.482Z,99314.31
2022-10-08T01:04:07.568Z,99314.53
2022-10-08T01:06:43.041Z,99322.53
2022-10-08T01:09:18.674Z,99307.88
2022-10-08T01:11:50.589Z,99306.19
2022-10-08T01:14:26.339Z,99307.72
2022-10-08T01:17:00.284Z,99300.22
2022-10-08T01:19:43.581Z,99301.78
2022-10-08T01:22:21.567Z,99296.88
2022-10-08T01:25:07.825Z,99303.16
2022-10-08T01:27:42.285Z,99296.91
2022-10-08T01:30:15.548Z,99294.53
2022-10-08T01:32:51.878Z,99303.66
2022-10-08T01:35:24.006Z,99294.88
2022-10-08T01:37:56.086Z,99297.72
2022-10-08T01:40:27.261Z,99296.09
2022-10-08T01:42:57.570Z,99293.97
2022-10-08T01:45:28.796Z,99306.38
2022-10-08T01:47:57.241Z,99301.63
2022-10-08T01:50:28.156Z,99310.00
2022-10-08T01:52:58.907Z,99299.78
2022-10-08T01:55:29.286Z,99305.66
2022-10-08T01:58:02.798Z,99297.22
2022-10-08T02:00:32.110Z,99296.94
2022-10-08T02:02:59.684Z,99303.53
2022-10-08T02:05:29.502Z,99301.19
2022-10-08T02:07:57.088Z,99307.38
2022-10-08T02:10:25.713Z,99313.72
2022-10-08T02:12:53.672Z,99305.06
2022-10-08T02:15:24.798Z,99297.69
2022-10-08T02:17:58.879Z,99298.88
2022-10-08T02:20:32.413Z,99294.78
2022-10-08T02:23:05.000Z,99300.25
2022-10-08T02:25:36.984Z,99306.56
2022-10-08T02:28:09.185Z,99296.56
2022-10-08T02:30:47.389Z,99302.94
2022-10-08T02:33:17.895Z,99293.25
2022-10-08T02:35:48.623Z,99288.03
2022-10-08T02:38:19.830Z,99283.03
2022-10-08T02:40:51.372Z,99290.06
2022-10-08T02:43:22.402Z,99290.25
2022-10-08T02:45:55.307Z,99292.72
2022-10-08T02:48:28.339Z,99293.81
2022-10-08T02:50:57.551Z,99289.47
2022-10-08T02:53:26.517Z,99291.28
2022-10-08T02:56:02.444Z,99298.25
2022-10-08T02:58:30.214Z,99299.31
2022-10-08T03:01:03.935Z,99297.38
2022-10-08T03:03:36.588Z,99297.19
2022-10-08T03:06:06.198Z,99295.53
2022-10-08T03:08:35.900Z,99290.56
2022-10-08T03:11:03.832Z,99307.28
2022-10-08T03:13:31.794Z,99297.72
2022-10-08T03:16:00.878Z,99302.44
2022-10-08T03:18:28.532Z,99301.47
2022-10-08T03:20:56.220Z,99298.78
2022-10-08T03:23:25.019Z,99307.47
2022-10-08T03:25:52.616Z,99307.66
2022-10-08T03:28:20.198Z,99306.72
2022-10-08T03:30:48.156Z,99310.47
2022-10-08T03:33:17.118Z,99312.00
2022-10-08T03:35:46.073Z,99313.78
2022-10-08T03:38:15.384Z,99312.00
2022-10-08T03:40:43.011Z,99318.19
2022-10-08T03:43:10.640Z,99314.63
2022-10-08T03:45:38.226Z,99318.00
2022-10-08T03:48:05.812Z,99326.09
2022-10-08T03:50:35.396Z,99327.25
2022-10-08T03:53:02.950Z,99335.91
2022-10-08T03:55:30.488Z,99332.22
2022-10-08T03:57:58.112Z,99335.34
2022-10-08T04:00:25.807Z,99336.59
2022-10-08T04:02:53.417Z,99332.78
2022-10-08T04:05:21.026Z,99336.34
2022-10-08T04:07:49.994Z,99335.97
2022-10-08T04:10:17.597Z,99338.59
2022-10-08T04:12:45.518Z,99343.75
2022-10-08T04:15:13.301Z,99339.59
2022-10-08T04:17:41.704Z,99348.41
2022-10-08T04:20:10.180Z,99351.09
2022-10-08T04:22:37.784Z,99344.84
2022-10-08T04:25:06.923Z,99347.59
2022-10-08T04:27:34.451Z,99342.41
2022-10-08T04:30:02.032Z,99344.72
2022-10-08T04:32:29.610Z,99348.69
2022-10-08T04:34:57.309Z,99341.53
2022-10-08T04:37:24.911Z,99347.16
2022-10-08T04:39:52.547Z,99354.31
2022-10-08T04:42:21.505Z,99349.41
2022-10-08T04:44:49.097Z,99352.91
2022-10-08T04:47:16.719Z,99351.94
2022-10-08T04:49:44.619Z,99353.81
2022-10-08T04:52:13.713Z,99358.34
2022-10-08T04:54:41.304Z,99363.09
2022-10-08T04:57:08.945Z,99364.47
2022-10-08T04:59:49.202Z,99364.59
2022-10-08T05:02:25.546Z,99366.53
2022-10-08T05:04:53.149Z,99369.34
2022-10-08T05:07:20.776Z,99373.59
2022-10-08T05:09:48.441Z,99373.28
2022-10-08T05:12:15.999Z,99368.53
2022-10-08T05:14:44.868Z,99382.63
2022-10-08T05:17:12.523Z,99378.34
2022-10-08T05:19:40.095Z,99380.34
2022-10-08T05:22:07.700Z,99382.97
2022-10-08T05:24:35.407Z,99386.50
2022-10-08T05:27:02.963Z,99389.88
2022-10-08T05:29:30.590Z,99379.75
2022-10-08T05:31:59.605Z,99387.53
2022-10-08T05:34:27.191Z,99379.97
2022-10-08T05:36:55.016Z,99379.16
2022-10-08T05:39:22.669Z,99384.75
2022-10-08T05:41:50.469Z,99388.41
2022-10-08T05:44:18.027Z,99392.66
2022-10-08T05:46:45.734Z,99397.00
2022-10-08T05:49:19.443Z,99399.81
2022-10-08T05:51:47.227Z,99396.09
2022-10-08T05:54:14.797Z,99397.06
2022-10-08T05:56:42.395Z,99396.47
2022-10-08T05:59:14.552Z,99405.91
2022-10-08T06:01:42.126Z,99405.81
2022-10-08T06:04:11.631Z,99404.75
2022-10-08T06:06:42.165Z,99408.50
2022-10-08T06:09:12.170Z,99416.44
2022-10-08T06:11:40.050Z,99419.25
2022-10-08T06:14:08.781Z,99416.00
2022-10-08T06:16:36.825Z,99421.88
2022-10-08T06:19:06.123Z,99421.72
2022-10-08T06:21:37.459Z,99420.84
2022-10-08T06:24:08.659Z,99427.66
2022-10-08T06:26:38.107Z,99425.91
2022-10-08T06:29:06.564Z,99434.44
2022-10-08T06:31:34.593Z,99432.56
2022-10-08T06:34:04.225Z,99430.63
2022-10-08T06:36:32.514Z,99425.25
2022-10-08T06:39:01.711Z,99423.94
2022-10-08T06:41:33.254Z,99432.69
2022-10-08T06:44:00.811Z,99432.47
2022-10-08T06:46:31.279Z,99438.31
2022-10-08T06:48:59.228Z,99438.72
2022-10-08T06:51:27.779Z,99444.75
2022-10-08T06:54:01.465Z,99440.56
2022-10-08T06:56:35.985Z,99455.50
2022-10-08T06:59:03.850Z,99455.41
2022-10-08T07:01:33.920Z,99459.34
2022-10-08T07:04:02.416Z,99467.81
2022-10-08T07:06:30.012Z,99465.66
2022-10-08T07:08:59.284Z,99465.66
2022-10-08T07:11:27.486Z,99463.31
2022-10-08T07:13:57.315Z,99464.00
2022-10-08T07:16:26.497Z,99471.22
2022-10-08T07:18:56.048Z,99463.31
2022-10-08T07:21:24.107Z,99466.16
2022-10-08T07:23:53.005Z,99467.88
2022-10-08T07:26:22.322Z,99469.84
2022-10-08T07:28:51.825Z,99474.63
2022-10-08T07:31:22.493Z,99478.41
2022-10-08T07:33:50.424Z,99491.03
2022-10-08T07:36:19.755Z,99490.84
2022-10-08T07:38:48.295Z,99480.19
2022-10-08T07:41:16.124Z,99488.81
2022-10-08T07:43:43.947Z,99494.44
2022-10-08T07:46:12.431Z,99491.78
2022-10-08T07:48:42.013Z,99489.03
2022-10-08T07:51:10.852Z,99484.88
2022-10-08T07:53:38.481Z,99491.91
2022-10-08T07:56:06.677Z,99496.56
2022-10-08T07:58:34.254Z,99494.56
2022-10-08T08:01:03.945Z,99503.97
2022-10-08T08:03:31.761Z,99501.47
2022-10-08T08:06:03.328Z,99504.28
2022-10-08T08:08:31.091Z,99508.72
2022-10-08T08:10:58.951Z,99501.34
2022-10-08T08:13:26.969Z,99511.28
2022-10-08T08:15:58.595Z,99512.84
2022-10-08T08:18:28.831Z,99508.28
2022-10-08T08:21:00.153Z,99510.06
2022-10-08T08:23:35.247Z,99520.72
2022-10-08T08:26:03.293Z,99519.72
2022-10-08T08:28:31.068Z,99519.66
2022-10-08T08:31:08.150Z,99529.44
2022-10-08T08:33:35.962Z,99529.34
2022-10-08T08:36:04.040Z,99527.44
2022-10-08T08:38:35.337Z,99537.25
2022-10-08T08:41:12.692Z,99528.28
2022-10-08T08:43:41.215Z,99535.38
2022-10-08T08:46:08.815Z,99539.81
2022-10-08T08:48:37.957Z,99534.59
2022-10-08T08:51:05.723Z,99536.00
2022-10-08T08:53:34.837Z,99540.31
2022-10-08T08:56:06.030Z,99547.28
2022-10-08T08:58:38.935Z,99550.91
2022-10-08T09:01:15.823Z,99558.34
2022-10-08T09:03:45.401Z,99565.22
2022-10-08T09:06:15.018Z,99561.03
2022-10-08T09:08:46.758Z,99563.13
2022-10-08T09:11:16.101Z,99567.66
2022-10-08T09:13:51.325Z,99559.69
2022-10-08T09:16:23.878Z,99572.72
2022-10-08T09:18:52.887Z,99573.56
2022-10-08T09:21:21.137Z,99580.00
2022-10-08T09:23:50.055Z,99577.06
2022-10-08T09:26:20.889Z,99574.72
2022-10-08T09:28:50.051Z,99577.16
2022-10-08T09:31:29.514Z,99577.91
2022-10-08T09:34:01.584Z,99587.94
2022-10-08T09:36:31.066Z,99584.28
2022-10-08T09:39:01.739Z,99582.41
2022-10-08T09:41:30.262Z,99594.84
2022-10-08T09:44:16.528Z,99595.50
2022-10-08T09:46:44.386Z,99603.50
2022-10-08T09:49:32.092Z,99608.13
2022-10-08T09:52:02.174Z,99612.94
2022-10-08T09:54:32.559Z,99611.66
2022-10-08T09:57:01.119Z,99608.75
2022-10-08T09:59:30.347Z,99613.78
2022-10-08T10:01:58.812Z,99614.72
2022-10-08T10:04:33.198Z,99621.06
2022-10-08T10:07:01.112Z,99612.69
2022-10-08T10:09:39.526Z,99614.91
2022-10-08T10:12:14.798Z,99622.78
2022-10-08T10:14:44.816Z,99623.47
2022-10-08T10:17:15.878Z,99618.97
2022-10-08T10:19:48.918Z,99612.44
2022-10-08T10:22:20.761Z,99620.91
2022-10-08T10:24:54.261Z,99612.03
2022-10-08T10:27:32.464Z,99611.66
2022-10-08T10:30:05.868Z,99599.88
2022-10-08T10:32:38.056Z,99615.09
2022-10-08T10:35:11.455Z,99616.16
2022-10-08T10:37:45.604Z,99619.06
2022-10-08T10:40:32.107Z,99616.50
2022-10-08T10:43:07.899Z,99620.19
2022-10-08T10:45:36.088Z,99625.88
2022-10-08T10:48:03.943Z,99626.16
2022-10-08T10:50:46.409Z,99623.38
2022-10-08T10:53:19.543Z,99623.56
2022-10-08T10:55:54.906Z,99627.53
2022-10-08T10:58:31.926Z,99630.31
2022-10-08T11:01:05.446Z,99626.28
2022-10-08T11:03:39.747Z,99639.03
2022-10-08T11:06:23.626Z,99634.75
2022-10-08T11:08:57.634Z,99636.97
2022-10-08T11:11:33.179Z,99638.13
2022-10-08T11:14:09.044Z,99639.03
2022-10-08T11:16:47.899Z,99646.47
2022-10-08T11:19:26.748Z,99639.72
2022-10-08T11:21:59.876Z,99644.84
2022-10-08T11:24:40.338Z,99640.03
2022-10-08T11:27:13.839Z,99637.13
2022-10-08T11:29:45.447Z,99639.91
2022-10-08T11:32:14.909Z,99646.00
2022-10-08T11:34:47.578Z,99649.16
2022-10-08T11:37:22.718Z,99656.81
2022-10-08T11:39:55.010Z,99646.50
2022-10-08T11:42:35.647Z,99649.50
2022-10-08T11:45:32.424Z,99649.72
2022-10-08T11:48:00.907Z,99644.81
2022-10-08T11:50:31.255Z,99646.31
2022-10-08T11:53:02.451Z,99643.75
2022-10-08T11:55:31.973Z,99647.28
2022-10-08T11:58:09.952Z,99644.84
2022-10-08T12:00:42.861Z,99642.16
2022-10-08T12:03:22.841Z,99646.28
2022-10-08T12:05:53.468Z,99644.84
2022-10-08T12:08:53.177Z,99649.00
2022-10-08T12:11:53.979Z,99639.50
2022-10-08T12:14:48.041Z,99645.44
2022-10-08T12:17:16.783Z,99637.34
2022-10-08T12:20:03.180Z,99646.41
2022-10-08T12:23:16.421Z,99650.69
2022-10-08T12:26:14.412Z,99638.97
2022-10-08T12:28:50.752Z,99643.22
2022-10-08T12:31:29.273Z,99646.22
2022-10-08T12:34:02.748Z,99637.06
2022-10-08T12:36:38.160Z,99634.09
2022-10-08T12:39:15.203Z,99636.75
2022-10-08T12:41:51.188Z,99631.94
2022-10-08T12:44:30.575Z,99633.50
2022-10-08T12:47:12.205Z,99638.94
2022-10-08T12:49:46.363Z,99634.94
2022-10-08T12:52:14.965Z,99631.41
2022-10-08T12:54:50.726Z,99620.94
2022-10-08T12:57:38.533Z,99629.25
2022-10-08T13:00:22.491Z,99629.31
2022-10-08T13:03:18.209Z,99626.81
2022-10-08T13:06:02.417Z,99621.72
2022-10-08T13:08:42.810Z,99623.34
2022-10-08T13:11:23.211Z,99628.03
2022-10-08T13:13:52.880Z,99620.25
2022-10-08T13:16:26.157Z,99622.50
2022-10-08T13:19:05.059Z,99619.41
2022-10-08T13:21:39.113Z,99620.06
2022-10-08T13:24:34.281Z,99622.41
2022-10-08T13:33:13.528Z,99623.69
2022-10-08T13:35:52.772Z,99622.63
2022-10-08T13:38:23.294Z,99624.66
2022-10-08T13:41:03.049Z,99622.09
2022-10-08T13:43:31.603Z,99627.97
2022-10-08T13:45:59.975Z,99629.06
2022-10-08T13:48:27.687Z,99624.28
2022-10-08T13:50:57.492Z,99626.31
2022-10-08T13:53:26.748Z,99633.81
2022-10-08T13:55:54.629Z,99625.56
2022-10-08T13:58:22.309Z,99612.47
2022-10-08T14:00:50.410Z,99622.38
2022-10-08T14:03:18.599Z,99619.19
2022-10-08T14:05:47.759Z,99622.78
2022-10-08T14:08:19.032Z,99618.78
2022-10-08T14:10:47.079Z,99613.75
2022-10-08T14:13:15.908Z,99616.31
2022-10-08T14:15:43.641Z,99620.31
2022-10-08T14:18:11.294Z,99615.44
2022-10-08T14:20:39.188Z,99610.97
2022-10-08T14:23:06.910Z,99622.97
2022-10-08T14:25:35.864Z,99621.34
2022-10-08T14:28:03.568Z,99624.47
2022-10-08T14:30:31.174Z,99621.16
2022-10-08T14:32:58.780Z,99621.50
2022-10-08T14:35:26.342Z,99632.06
2022-10-08T14:37:53.942Z,99624.88
2022-10-08T14:40:22.833Z,99622.19
2022-10-08T14:42:52.107Z,99624.69
2022-10-08T14:45:19.877Z,99623.72
2022-10-08T14:47:47.453Z,99618.84
2022-10-08T14:50:15.207Z,99622.75
2022-10-08T14:52:44.594Z,99622.06
2022-10-08T14:55:13.234Z,99616.09
2022-10-08T14:57:40.825Z,99613.94
2022-10-08T15:00:11.098Z,99614.03
2022-10-08T15:02:38.685Z,99611.81
2022-10-08T15:05:07.273Z,99614.50
2022-10-08T15:07:34.825Z,99609.72
2022-10-08T15:10:02.458Z,99615.38
2022-10-08T15:12:30.155Z,99617.09
2022-10-08T15:14:57.718Z,99618.31
2022-10-08T15:17:26.639Z,99616.13
2022-10-08T15:19:54.343Z,99623.72
2022-10-08T15:22:21.864Z,99612.13
2022-10-08T15:24:49.545Z,99619.34
2022-10-08T15:27:20.578Z,99623.16
2022-10-08T15:29:48.711Z,99621.22
2022-10-08T15:32:16.615Z,99617.31
2022-10-08T15:34:45.604Z,99624.63
2022-10-08T15:37:14.586Z,99617.66
2022-10-08T15:39:42.246Z,99623.56
2022-10-08T15:42:11.980Z,99633.22
2022-10-08T15:44:39.967Z,99641.94
2022-10-08T15:47:11.482Z,99641.00
2022-10-08T15:49:40.251Z,99639.13
2022-10-08T15:52:10.650Z,99637.59
2022-10-08T15:54:38.727Z,99644.81
2022-10-08T15:57:06.957Z,99649.19
2022-10-08T15:59:35.026Z,99643.63
2022-10-08T16:02:03.104Z,99647.38
2022-10-08T16:04:30.760Z,99650.56
2022-10-08T16:06:58.387Z,99656.13
2022-10-08T16:09:37.526Z,99653.72
2022-10-08T16:12:12.507Z,99651.41
2022-10-08T16:14:45.170Z,99660.66
2022-10-08T16:17:27.148Z,99658.75
2022-10-08T16:19:55.101Z,99663.06
2022-10-08T16:22:22.718Z,99670.69
2022-10-08T16:24:51.651Z,99670.16
2022-10-08T16:27:19.504Z,99676.75
2022-10-08T16:29:47.048Z,99670.78
2022-10-08T16:32:15.938Z,99676.66
2022-10-08T16:34:45.304Z,99676.31
2022-10-08T16:37:13.634Z,99682.13
2022-10-08T16:39:41.296Z,99681.97
2022-10-08T16:42:10.313Z,99689.81
2022-10-08T16:44:37.911Z,99694.91
2022-10-08T16:47:11.731Z,99698.38
2022-10-08T16:49:49.779Z,99699.34
2022-10-08T16:52:21.010Z,99705.09
2022-10-08T16:54:54.516Z,99707.69
2022-10-08T16:57:24.786Z,99715.88
2022-10-08T16:59:52.408Z,99711.09
2022-10-08T17:02:24.967Z,99720.31
2022-10-08T17:04:53.649Z,99722.25
2022-10-08T17:07:21.218Z,99728.75
2022-10-08T17:09:48.797Z,99728.03
2022-10-08T17:12:20.964Z,99733.00
2022-10-08T17:14:50.604Z,99744.28
2022-10-08T17:17:18.288Z,99750.19
2022-10-08T17:19:45.956Z,99759.25
2022-10-08T17:22:16.269Z,99749.53
2022-10-08T17:24:43.873Z,99759.81
2022-10-08T17:27:13.285Z,99772.31
2022-10-08T17:29:41.084Z,99781.44
2022-10-08T17:32:11.476Z,99782.81
2022-10-08T17:34:39.210Z,99789.84
2022-10-08T17:37:07.055Z,99783.88
2022-10-08T17:39:34.876Z,99793.00
2022-10-08T17:42:06.811Z,99790.03
2022-10-08T17:44:34.753Z,99801.22
2022-10-08T17:47:02.341Z,99802.47
2022-10-08T17:49:32.743Z,99809.88
2022-10-08T17:52:00.384Z,99807.31
2022-10-08T17:54:28.030Z,99818.75
2022-10-08T17:56:55.793Z,99816.63
2022-10-08T17:59:23.591Z,99817.09
2022-10-08T18:01:51.575Z,99825.22
2022-10-08T18:04:20.085Z,99826.22
2022-10-08T18:06:49.040Z,99832.81
2022-10-08T18:09:18.312Z,99835.78
2022-10-08T18:11:47.558Z,99835.72
2022-10-08T18:14:17.035Z,99837.25
2022-10-08T18:16:48.098Z,99845.03
2022-10-08T18:19:16.168Z,99849.16
2022-10-08T18:21:43.798Z,99850.13
2022-10-08T18:24:12.724Z,99857.59
2022-10-08T18:26:40.402Z,99855.06
2022-10-08T18:29:09.742Z,99859.91
2022-10-08T18:31:38.666Z,99863.72
2022-10-08T18:34:08.937Z,99863.53
2022-10-08T18:36:37.967Z,99870.28
2022-10-08T18:39:08.234Z,99872.38
2022-10-08T18:41:41.273Z,99881.66
2022-10-08T18:44:11.469Z,99873.13
2022-10-08T18:46:40.086Z,99870.63
2022-10-08T18:49:07.914Z,99881.63
2022-10-08T18:51:35.660Z,99877.81
2022-10-08T18:54:03.258Z,99881.50
2022-10-08T18:56:38.036Z,99880.63
2022-10-08T18:59:22.144Z,99886.78
2022-10-08T19:02:01.722Z,99879.03
2022-10-08T19:04:42.519Z,99888.63
2022-10-08T19:07:10.887Z,99890.59
2022-10-08T19:09:39.819Z,99890.59
2022-10-08T19:12:08.063Z,99892.47
2022-10-08T19:14:37.128Z,99895.19
2022-10-08T19:17:04.678Z,99897.81
2022-10-08T19:19:32.697Z,99898.31
2022-10-08T19:22:01.792Z,99896.00
2022-10-08T19:24:29.844Z,99905.94
2022-10-08T19:26:58.241Z,99901.81
2022-10-08T19:29:28.850Z,99905.56
2022-10-08T19:31:57.875Z,99905.97
2022-10-08T19:34:27.335Z,99911.19
2022-10-08T19:36:55.228Z,99918.53
2022-10-08T19:39:24.242Z,99909.97
2022-10-08T19:41:52.057Z,99920.78
2022-10-08T19:44:20.473Z,99918.88
2022-10-08T19:46:48.292Z,99917.91
2022-10-08T19:49:17.691Z,99920.06
2022-10-08T19:51:45.524Z,99936.94
2022-10-08T19:54:13.196Z,99940.97
2022-10-08T19:56:41.161Z,99927.97
2022-10-08T19:59:10.544Z,99940.09
2022-10-08T20:01:39.135Z,99944.63
2022-10-08T20:04:07.984Z,99949.97
2022-10-08T20:06:39.580Z,99951.81
2022-10-08T20:09:10.168Z,99950.19
2022-10-08T20:11:37.725Z,99949.41
2022-10-08T20:14:05.907Z,99946.94
2022-10-08T20:16:35.302Z,99951.19
2022-10-08T20:19:05.470Z,99953.31
2022-10-08T20:21:37.338Z,99964.38
2022-10-08T20:24:06.198Z,99960.03
2022-10-08T20:26:34.878Z,99962.53
2022-10-08T20:29:03.979Z,99967.47
2022-10-08T20:31:33.298Z,99976.88
2022-10-08T20:34:02.503Z,99980.56
2022-10-08T20:36:31.038Z,99973.03
2022-10-08T20:39:03.574Z,99979.03
2022-10-08T20:41:31.518Z,99972.94
2022-10-08T20:44:01.109Z,99972.56
2022-10-08T20:46:28.975Z,99971.78
2022-10-08T20:48:57.122Z,99989.63
2022-10-08T20:51:26.519Z,99979.63
2022-10-08T20:53:56.400Z,99983.22
2022-10-08T20:56:26.258Z,99995.75
2022-10-08T20:58:54.184Z,99993.53
2022-10-08T21:01:23.504Z,99991.75
2022-10-08T21:03:51.686Z,99987.22
2022-10-08T21:06:20.886Z,99991.53
2022-10-08T21:08:50.634Z,99993.53
2022-10-08T21:11:20.656Z,99989.03
2022-10-08T21:13:49.854Z,99989.91
2022-10-08T21:16:19.952Z,99989.16
2022-10-08T21:18:50.582Z,99979.09
2022-10-08T21:21:19.032Z,99987.81
2022-10-08T21:23:49.547Z,99988.44
2022-10-08T21:26:18.510Z,99990.59
2022-10-08T21:28:47.840Z,99985.28
2022-10-08T21:31:17.549Z,99988.59
2022-10-08T21:33:46.459Z,99990.03
2022-10-08T21:36:16.486Z,99985.59
2022-10-08T21:38:44.315Z,99992.50
2022-10-08T21:41:13.673Z,99996.06
2022-10-08T21:43:42.680Z,99998.63
2022-10-08T21:46:11.953Z,99993.41
2022-10-08T21:48:41.234Z,100002.25
2022-10-08T21:51:10.454Z,99996.28
2022-10-08T21:53:40.000Z,99998.50
2022-10-08T21:56:09.185Z,99996.81
2022-10-08T21:58:38.458Z,100009.22
2022-10-08T22:01:06.718Z,100002.16
2022-10-08T22:03:34.776Z,100009.81
2022-10-08T22:06:05.235Z,100005.81
2022-10-08T22:08:33.017Z,99998.94
2022-10-08T22:11:00.795Z,100000.53
2022-10-08T22:13:28.418Z,100009.34
2022-10-08T22:15:57.826Z,99999.56
2022-10-08T22:18:26.615Z,99996.59
2022-10-08T22:20:54.612Z,99994.09
2022-10-08T22:23:24.970Z,99990.59
2022-10-08T22:25:53.880Z,99990.59
2022-10-08T22:28:21.952Z,99988.91
2022-10-08T22:30:49.937Z,99991.41
2022-10-08T22:33:17.880Z,99994.09
2022-10-08T22:35:45.758Z,99977.09
2022-10-08T22:38:13.515Z,99991.94
2022-10-08T22:40:42.589Z,99993.69
2022-10-08T22:43:10.226Z,99991.03
2022-10-08T22:45:38.907Z,99983.34
2022-10-08T22:48:06.655Z,99985.94
2022-10-08T22:50:35.318Z,99996.59
2022-10-08T22:53:03.318Z,99993.91
2022-10-08T22:55:31.410Z,99988.75
2022-10-08T22:58:00.480Z,99993.06
2022-10-08T23:00:28.219Z,99993.38
2022-10-08T23:02:55.897Z,99988.16
2022-10-08T23:05:23.515Z,99995.03
2022-10-08T23:07:55.245Z,99988.22
2022-10-08T23:10:22.944Z,99978.69
2022-10-08T23:12:51.082Z,99984.22
2022-10-08T23:15:20.168Z,99980.75
2022-10-08T23:17:47.835Z,99988.72
2022-10-08T23:20:15.639Z,99980.84
2022-10-08T23:22:43.153Z,99985.06
2022-10-08T23:25:11.000Z,99996.38
2022-10-08T23:27:38.563Z,99972.72
2022-10-08T23:30:20.741Z,99982.81
2022-10-08T23:32:55.908Z,99983.41
2022-10-08T23:35:23.518Z,99973.72
2022-10-08T23:37:51.029Z,99987.03
2022-10-08T23:40:18.594Z,99981.88
2022-10-08T23:42:46.493Z,99989.00
2022-10-08T23:45:14.479Z,99988.13
2022-10-08T23:47:42.037Z,99988.97
2022-10-08T23:50:11.364Z,99977.78
2022-10-08T23:52:38.915Z,99983.72
2022-10-08T23:55:07.257Z,99982.91
2022-10-08T23:57:34.855Z,99983.91
